Time;durP1;ratioP1;P1;durP2;ratioP2;P2;SDS_P1;SDS_P2;PMS_P1;PMS_P2;Temp;Humidity;BMP_temperature;BMP_pressure;BME280_temperature;BME280_humidity;BME280_pressure;Samples;Min_cycle;Max_cycle;Signal;HPM_P1;HPM_P2
2022/01/06 00:00:21;;;;;;;2.40;1.08;;;;;;;;;;4929488;28;20036;-80
2022/01/06 00:02:47;;;;;;;12.85;5.95;;;;;;;;;;4945466;28;20042;-80
2022/01/06 00:05:13;;;;;;;9.93;1.67;;;;;;;;;;4975729;28;20037;-81
2022/01/06 00:07:39;;;;;;;3.63;1.25;;;;;;;;;;4929864;28;20093;-80
2022/01/06 00:10:08;;;;;;;3.88;1.25;;;;;;;;;;4942856;28;20036;-80
2022/01/06 00:12:43;;;;;;;4.30;1.48;;;;;;;;;;4930537;28;20031;-79
2022/01/06 00:25:54;;;;;;;3.45;1.73;;;;;;;;;;4923870;28;20086;-80
2022/01/06 00:28:20;;;;;;;3.50;1.20;;;;;;;;;;4933210;28;20087;-80
2022/01/06 00:30:47;;;;;;;5.97;1.92;;;;;;;;;;4927886;28;20110;-80
2022/01/06 00:33:13;;;;;;;4.40;1.92;;;;;;;;;;4944583;28;20119;-81
2022/01/06 00:35:39;;;;;;;7.03;1.25;;;;;;;;;;4925426;28;20034;-79
2022/01/06 00:38:07;;;;;;;4.35;1.75;;;;;;;;;;4948489;28;20399;-79
2022/01/06 00:40:33;;;;;;;3.80;1.45;;;;;;;;;;4930600;28;20035;-80
2022/01/06 00:43:00;;;;;;;3.72;1.45;;;;;;;;;;4931564;28;20039;-79
2022/01/06 00:45:26;;;;;;;2.35;1.25;;;;;;;;;;4971921;28;20025;-80
2022/01/06 00:47:52;;;;;;;2.97;1.60;;;;;;;;;;4925435;28;20039;-80
2022/01/06 00:50:18;;;;;;;4.72;1.70;;;;;;;;;;4958599;28;20056;-79
2022/01/06 00:52:44;;;;;;;4.40;1.90;;;;;;;;;;4925668;28;20035;-80
2022/01/06 00:55:10;;;;;;;2.65;1.20;;;;;;;;;;4939859;28;20036;-79
2022/01/06 00:57:36;;;;;;;4.15;1.75;;;;;;;;;;4954592;28;20024;-80
2022/01/06 01:00:03;;;;;;;6.18;1.35;;;;;;;;;;4925640;28;20034;-79
2022/01/06 01:02:29;;;;;;;3.53;0.85;;;;;;;;;;4952705;28;20062;-79
2022/01/06 01:04:55;;;;;;;3.63;1.35;;;;;;;;;;4936326;28;20165;-80
2022/01/06 01:07:21;;;;;;;8.65;2.05;;;;;;;;;;4920786;28;20032;-79
2022/01/06 01:09:47;;;;;;;10.55;3.15;;;;;;;;;;4981990;28;20036;-79
2022/01/06 01:12:13;;;;;;;2.90;0.93;;;;;;;;;;4964552;28;20407;-79
2022/01/06 01:14:52;;;;;;;4.50;1.30;;;;;;;;;;4941004;28;20042;-79
2022/01/06 01:17:18;;;;;;;2.50;1.05;;;;;;;;;;4925038;28;20032;-79
2022/01/06 01:19:44;;;;;;;3.17;1.55;;;;;;;;;;4943244;28;20051;-79
2022/01/06 01:22:10;;;;;;;5.03;2.33;;;;;;;;;;4928694;28;20036;-80
2022/01/06 01:24:36;;;;;;;13.35;1.83;;;;;;;;;;4942788;28;20175;-79
2022/01/06 01:27:04;;;;;;;2.55;1.30;;;;;;;;;;4933686;28;20050;-79
2022/01/06 01:29:34;;;;;;;3.78;1.80;;;;;;;;;;4930079;28;20066;-80
2022/01/06 01:32:00;;;;;;;6.40;1.20;;;;;;;;;;4933237;28;20493;-79
2022/01/06 01:34:27;;;;;;;3.92;1.52;;;;;;;;;;4967249;28;20040;-79
2022/01/06 01:36:55;;;;;;;8.98;1.70;;;3.70;99.90;;;;;;4946502;28;20059;-78
2022/01/06 01:39:21;;;;;;;3.22;1.40;;;;;;;;;;4954133;28;20062;-78
2022/01/06 01:41:47;;;;;;;2.28;1.33;;;;;;;;;;4953038;28;20032;-79
2022/01/06 01:44:14;;;;;;;6.75;1.48;;;;;;;;;;4938115;28;20051;-79
2022/01/06 01:46:45;;;;;;;12.68;1.90;;;;;;;;;;4964525;28;20028;-80
2022/01/06 01:49:27;;;;;;;5.35;1.60;;;;;;;;;;4957579;28;20035;-79
2022/01/06 01:51:53;;;;;;;3.28;1.73;;;;;;;;;;4941419;28;20042;-80
2022/01/06 01:54:19;;;;;;;8.65;1.27;;;;;;;;;;4947293;28;20097;-80
2022/01/06 01:56:45;;;;;;;2.10;1.15;;;;;;;;;;4947474;28;20058;-79
2022/01/06 01:59:12;;;;;;;4.53;1.13;;;;;;;;;;4928005;28;20054;-79
2022/01/06 02:01:38;;;;;;;2.90;1.60;;;;;;;;;;4946667;28;20391;-79
2022/01/06 02:04:04;;;;;;;3.20;1.48;;;;;;;;;;4946448;28;20028;-79
2022/01/06 02:06:30;;;;;;;3.83;1.20;;;;;;;;;;4941009;28;20113;-80
2022/01/06 02:08:56;;;;;;;3.55;1.63;;;;;;;;;;4967715;28;20425;-79
2022/01/06 02:11:22;;;;;;;3.47;1.40;;;;;;;;;;4943906;28;20031;-80
2022/01/06 02:13:50;;;;;;;5.43;1.40;;;3.60;99.90;;;;;;4947093;28;20557;-80
2022/01/06 02:16:23;;;;;;;1.40;0.93;;;;;;;;;;4948050;28;20620;-79
2022/01/06 02:18:50;;;;;;;3.88;1.52;;;;;;;;;;4950507;28;20518;-80
2022/01/06 02:21:16;;;;;;;3.40;1.25;;;;;;;;;;4935140;28;20082;-80
2022/01/06 02:23:42;;;;;;;4.80;1.48;;;;;;;;;;4965189;28;20075;-79
2022/01/06 02:26:08;;;;;;;4.40;1.65;;;;;;;;;;4941852;28;20042;-80
2022/01/06 02:28:35;;;;;;;2.05;1.02;;;;;;;;;;4934429;28;20063;-81
2022/01/06 02:31:01;;;;;;;1.65;0.85;;;;;;;;;;4956119;28;20067;-80
2022/01/06 02:33:27;;;;;;;2.28;1.08;;;;;;;;;;4942267;28;20044;-80
2022/01/06 02:35:54;;;;;;;9.00;1.55;;;;;;;;;;4965936;28;20110;-80
2022/01/06 02:38:20;;;;;;;5.70;2.67;;;;;;;;;;4957415;28;20585;-80
2022/01/06 02:40:46;;;;;;;3.47;1.23;;;;;;;;;;4937761;28;20081;-80
2022/01/06 02:43:15;;;;;;;7.25;1.75;;;;;;;;;;4937021;28;20096;-80
2022/01/06 02:45:41;;;;;;;1.48;1.13;;;;;;;;;;4971009;28;20040;-79
2022/01/06 02:48:10;;;;;;;2.85;0.93;;;;;;;;;;4944807;28;20048;-80
2022/01/06 02:50:40;;;;;;;6.10;1.90;;;;;;;;;;4931787;28;20020;-80
2022/01/06 02:53:07;;;;;;;3.53;1.58;;;;;;;;;;4957756;28;20047;-79
2022/01/06 02:55:33;;;;;;;4.13;2.25;;;;;;;;;;4933138;28;20046;-79
2022/01/06 02:57:59;;;;;;;3.38;1.80;;;;;;;;;;4974983;28;20024;-80
2022/01/06 03:00:26;;;;;;;3.50;1.27;;;;;;;;;;4945039;28;20032;-80
2022/01/06 03:02:52;;;;;;;2.92;1.63;;;;;;;;;;4933756;28;20046;-80
2022/01/06 03:05:18;;;;;;;6.13;1.85;;;;;;;;;;4939540;28;20028;-79
2022/01/06 03:07:45;;;;;;;8.35;1.50;;;3.50;99.90;;;;;;4927343;28;20032;-79
2022/01/06 03:10:13;;;;;;;2.90;1.58;;;;;;;;;;4952427;28;20101;-80
2022/01/06 03:12:39;;;;;;;1.27;1.08;;;;;;;;;;4951863;28;20070;-80
2022/01/06 03:15:09;;;;;;;7.55;1.58;;;;;;;;;;4951305;28;20051;-80
2022/01/06 03:17:37;;;;;;;3.53;1.33;;;;;;;;;;4945076;28;20476;-80
2022/01/06 03:20:04;;;;;;;5.43;1.73;;;;;;;;;;4942512;28;20087;-80
2022/01/06 03:22:29;;;;;;;2.78;1.38;;;;;;;;;;4946056;28;20082;-80
2022/01/06 03:24:55;;;;;;;2.17;1.08;;;;;;;;;;4958953;28;20044;-80
2022/01/06 03:27:22;;;;;;;5.43;1.42;;;;;;;;;;4945840;28;20027;-79
2022/01/06 03:29:50;;;;;;;5.50;1.55;;;;;;;;;;4935457;28;20045;-80
2022/01/06 03:32:16;;;;;;;7.82;2.15;;;;;;;;;;4938010;28;20158;-78
2022/01/06 03:34:42;;;;;;;6.15;3.53;;;;;;;;;;4929453;28;20035;-80
2022/01/06 03:37:08;;;;;;;4.28;1.30;;;;;;;;;;4950895;28;20083;-80
2022/01/06 03:39:34;;;;;;;4.22;1.50;;;2.60;99.90;;;;;;4932738;28;20020;-80
2022/01/06 03:42:00;;;;;;;2.95;1.75;;;;;;;;;;4969459;28;20036;-80
2022/01/06 03:44:26;;;;;;;5.05;1.73;;;;;;;;;;4962955;28;20073;-80
2022/01/06 03:46:55;;;;;;;4.75;1.63;;;;;;;;;;4956643;28;20513;-80
2022/01/06 03:49:21;;;;;;;1.35;1.20;;;;;;;;;;4932667;28;20039;-79
2022/01/06 03:51:47;;;;;;;7.75;2.38;;;;;;;;;;4949535;28;20039;-80
2022/01/06 03:54:13;;;;;;;7.88;1.58;;;;;;;;;;4941097;28;20028;-79
2022/01/06 03:56:39;;;;;;;3.42;1.65;;;;;;;;;;4975917;28;20029;-80
2022/01/06 03:59:05;;;;;;;6.93;1.73;;;;;;;;;;4947242;28;20222;-80
2022/01/06 04:01:32;;;;;;;3.17;1.65;;;;;;;;;;4963882;28;21712;-80
2022/01/06 04:03:58;;;;;;;3.20;1.00;;;;;;;;;;4977089;28;20122;-81
2022/01/06 04:06:24;;;;;;;3.97;1.88;;;;;;;;;;4932092;28;20068;-80
2022/01/06 04:08:50;;;;;;;2.22;1.73;;;;;;;;;;4949638;28;20043;-79
2022/01/06 04:11:16;;;;;;;2.38;1.65;;;;;;;;;;4944817;28;20541;-80
2022/01/06 04:13:42;;;;;;;2.95;1.20;;;;;;;;;;4930771;28;20095;-80
2022/01/06 04:16:10;;;;;;;3.10;1.95;;;;;;;;;;4925216;28;20028;-79
2022/01/06 04:18:37;;;;;;;8.30;1.58;;;;;;;;;;4942614;28;20035;-80
2022/01/06 04:21:03;;;;;;;3.10;1.58;;;;;;;;;;4931170;28;20064;-80
2022/01/06 04:23:29;;;;;;;4.90;1.50;;;;;;;;;;4950768;28;20032;-80
2022/01/06 04:25:55;;;;;;;1.65;0.77;;;;;;;;;;4939916;28;20036;-79
2022/01/06 04:28:21;;;;;;;2.85;1.33;;;;;;;;;;4968304;28;20027;-79
2022/01/06 04:30:47;;;;;;;4.45;1.63;;;;;;;;;;4947701;28;20039;-81
2022/01/06 04:33:13;;;;;;;2.78;0.88;;;;;;;;;;4954490;28;20047;-80
2022/01/06 04:35:39;;;;;;;4.65;2.70;;;;;;;;;;4958206;28;20036;-79
2022/01/06 04:38:05;;;;;;;4.90;1.48;;;;;;;;;;4934176;28;20029;-79
2022/01/06 04:40:31;;;;;;;2.15;1.38;;;;;;;;;;4962997;28;20034;-80
2022/01/06 04:42:57;;;;;;;4.55;2.30;;;;;;;;;;4932504;28;20071;-80
2022/01/06 04:45:23;;;;;;;3.25;1.95;;;;;;;;;;4931743;28;20032;-79
2022/01/06 04:47:49;;;;;;;4.28;1.73;;;;;;;;;;4941366;28;20032;-80
2022/01/06 04:50:15;;;;;;;3.30;2.20;;;;;;;;;;4945548;28;20086;-79
2022/01/06 04:52:41;;;;;;;4.13;1.90;;;;;;;;;;4938916;28;20044;-79
2022/01/06 04:55:07;;;;;;;4.13;2.05;;;;;;;;;;4937058;28;20232;-79
2022/01/06 04:57:33;;;;;;;4.53;1.50;;;;;;;;;;4943070;28;20035;-80
2022/01/06 04:59:59;;;;;;;8.27;2.25;;;;;;;;;;4942685;28;20395;-80
2022/01/06 05:02:25;;;;;;;3.08;1.95;;;;;;;;;;4947197;28;20028;-80
2022/01/06 05:04:51;;;;;;;6.40;1.83;;;;;;;;;;4936771;28;20024;-80
2022/01/06 05:07:17;;;;;;;6.72;2.42;;;;;;;;;;4958971;28;20032;-79
2022/01/06 05:09:43;;;;;;;5.75;1.75;;;;;;;;;;4929547;28;20368;-80
2022/01/06 05:12:09;;;;;;;4.90;2.05;;;;;;;;;;4955366;28;20042;-80
2022/01/06 05:14:35;;;;;;;3.20;1.83;;;;;;;;;;4951011;28;20062;-80
2022/01/06 05:17:02;;;;;;;5.18;1.83;;;;;;;;;;4943763;28;20067;-80
2022/01/06 05:19:28;;;;;;;5.82;1.50;;;;;;;;;;4933862;28;20036;-80
2022/01/06 05:21:54;;;;;;;4.70;2.42;;;;;;;;;;4937942;28;20046;-81
2022/01/06 05:24:22;;;;;;;1.85;0.95;;;;;;;;;;4936395;28;20039;-80
2022/01/06 05:26:48;;;;;;;6.15;1.55;;;;;;;;;;4924626;28;20039;-79
2022/01/06 05:29:15;;;;;;;2.38;1.08;;;;;;;;;;4944603;28;20025;-79
2022/01/06 05:31:41;;;;;;;1.65;0.68;;;;;;;;;;4948860;28;20044;-80
2022/01/06 05:34:07;;;;;;;3.88;1.25;;;;;;;;;;4949979;28;20032;-79
2022/01/06 05:36:34;;;;;;;2.83;1.00;;;;;;;;;;4968441;28;20416;-79
2022/01/06 05:39:00;;;;;;;2.80;2.15;;;;;;;;;;4945094;28;20028;-80
2022/01/06 05:41:26;;;;;;;2.25;0.60;;;;;;;;;;4940179;28;20468;-79
2022/01/06 05:43:53;;;;;;;3.55;0.80;;;;;;;;;;4935938;28;20039;-79
2022/01/06 05:46:19;;;;;;;1.10;0.50;;;;;;;;;;4953480;28;20036;-80
2022/01/06 05:48:45;;;;;;;0.63;0.45;;;;;;;;;;4938755;28;20042;-80
2022/01/06 05:51:12;;;;;;;1.98;0.70;;;;;;;;;;4949156;28;20032;-79
2022/01/06 05:53:38;;;;;;;1.33;0.77;;;;;;;;;;4969834;28;20131;-80
2022/01/06 05:56:04;;;;;;;2.53;1.05;;;2.80;99.90;;;;;;4930901;28;20032;-79
2022/01/06 05:58:30;;;;;;;5.22;1.52;;;;;;;;;;4932009;28;20059;-80
2022/01/06 06:00:56;;;;;;;2.25;0.93;;;;;;;;;;4957671;28;20936;-80
2022/01/06 06:03:23;;;;;;;1.33;1.13;;;;;;;;;;4942481;28;20043;-80
2022/01/06 06:05:49;;;;;;;2.03;0.90;;;;;;;;;;4968400;28;20024;-79
2022/01/06 06:08:15;;;;;;;16.17;6.00;;;;;;;;;;4943711;28;20024;-80
2022/01/06 06:10:41;;;;;;;13.52;5.47;;;;;;;;;;4975554;28;20042;-80
2022/01/06 06:13:07;;;;;;;6.32;2.05;;;;;;;;;;4954593;28;20036;-79
2022/01/06 06:15:35;;;;;;;2.00;1.70;;;;;;;;;;4951950;28;20031;-80
2022/01/06 06:18:05;;;;;;;3.88;2.10;;;;;;;;;;4933589;28;20039;-80
2022/01/06 06:20:31;;;;;;;3.78;2.13;;;;;;;;;;4931506;28;20024;-80
2022/01/06 06:22:57;;;;;;;5.53;2.40;;;;;;;;;;4961325;28;20110;-80
2022/01/06 06:25:23;;;;;;;3.00;1.13;;;;;;;;;;4934752;28;20040;-80
2022/01/06 06:27:49;;;;;;;3.70;1.15;;;;;;;;;;4930198;28;20187;-80
2022/01/06 06:30:16;;;;;;;7.13;1.58;;;;;;;;;;4950139;28;20152;-79
2022/01/06 06:32:42;;;;;;;6.20;1.30;;;;;;;;;;4946435;28;20049;-79
2022/01/06 06:35:08;;;;;;;2.78;1.45;;;;;;;;;;4965071;28;20499;-79
2022/01/06 06:37:34;;;;;;;1.98;1.13;;;;;;;;;;4960602;28;20055;-80
2022/01/06 06:40:00;;;;;;;1.90;1.23;;;;;;;;;;4942727;28;20094;-81
2022/01/06 06:42:28;;;;;;;2.05;1.45;;;;;;;;;;4924080;28;20055;-81
2022/01/06 06:44:54;;;;;;;3.80;1.60;;;;;;;;;;4941383;28;20040;-81
2022/01/06 06:47:20;;;;;;;2.95;1.38;;;;;;;;;;4925081;28;20043;-81
2022/01/06 06:49:46;;;;;;;1.70;1.17;;;;;;;;;;4944402;28;20063;-82
2022/01/06 06:52:12;;;;;;;3.38;1.38;;;;;;;;;;4952950;28;20465;-80
2022/01/06 06:54:39;;;;;;;16.25;7.18;;;;;;;;;;4942015;28;20028;-79
2022/01/06 06:57:05;;;;;;;6.47;2.58;;;;;;;;;;4956467;28;20170;-79
2022/01/06 06:59:31;;;;;;;4.97;1.35;;;;;;;;;;4942554;28;20067;-79
2022/01/06 07:01:57;;;;;;;3.20;1.55;;;;;;;;;;4941093;28;20106;-80
2022/01/06 07:04:23;;;;;;;2.90;1.17;;;;;;;;;;4927229;28;20046;-80
2022/01/06 07:06:49;;;;;;;3.30;2.25;;;;;;;;;;4939396;28;20023;-79
2022/01/06 07:09:15;;;;;;;3.35;2.00;;;;;;;;;;4967746;28;20035;-79
2022/01/06 07:11:41;;;;;;;2.20;1.30;;;;;;;;;;4951556;28;20112;-79
2022/01/06 07:14:07;;;;;;;2.28;1.10;;;;;;;;;;4938552;28;20048;-79
2022/01/06 07:16:33;;;;;;;5.43;2.42;;;;;;;;;;4929044;28;20039;-82
2022/01/06 07:18:59;;;;;;;8.23;3.35;;;;;;;;;;4930826;28;20046;-79
2022/01/06 07:21:25;;;;;;;4.18;2.22;;;;;;;;;;4948731;28;20031;-81
2022/01/06 07:23:52;;;;;;;3.67;2.20;;;;;;;;;;4934405;28;20095;-79
2022/01/06 07:26:18;;;;;;;4.03;2.38;;;;;;;;;;4912950;28;20040;-81
2022/01/06 07:28:44;;;;;;;3.58;2.40;;;;;;;;;;4932210;28;20051;-81
2022/01/06 07:31:11;;;;;;;2.85;1.98;;;;;;;;;;4971148;28;20109;-81
2022/01/06 07:33:37;;;;;;;5.68;2.35;;;;;;;;;;4957019;28;20047;-80
2022/01/06 07:36:03;;;;;;;11.90;1.70;;;;;;;;;;4944222;28;20784;-80
2022/01/06 07:38:29;;;;;;;4.43;1.90;;;;;;;;;;4949927;28;20028;-81
2022/01/06 07:40:55;;;;;;;11.15;3.22;;;;;;;;;;4926862;28;20039;-81
2022/01/06 07:43:21;;;;;;;3.97;2.08;;;;;;;;;;4938562;28;20034;-82
2022/01/06 07:45:49;;;;;;;3.08;1.95;;;;;;;;;;4933990;28;20377;-80
2022/01/06 07:48:17;;;;;;;10.82;2.22;;;;;;;;;;4919264;28;20036;-79
2022/01/06 07:50:44;;;;;;;6.28;3.42;;;;;;;;;;4929948;28;20100;-80
2022/01/06 07:53:10;;;;;;;11.75;4.82;;;;;;;;;;4931747;28;20038;-80
2022/01/06 07:55:36;;;;;;;5.63;2.65;;;;;;;;;;4929220;28;20036;-80
2022/01/06 07:58:02;;;;;;;6.72;2.45;;;;;;;;;;4952530;28;20040;-80
2022/01/06 08:00:28;;;;;;;6.75;2.13;;;;;;;;;;4915651;28;20567;-80
2022/01/06 08:02:54;;;;;;;8.23;3.88;;;;;;;;;;4924935;28;20114;-81
2022/01/06 08:05:24;;;;;;;7.30;2.72;;;;;;;;;;4947732;28;20078;-80
2022/01/06 08:07:50;;;;;;;9.23;1.67;;;;;;;;;;4930404;28;20071;-80
2022/01/06 08:10:16;;;;;;;3.35;1.73;;;;;;;;;;4924774;28;20499;-81
2022/01/06 08:12:42;;;;;;;14.25;2.60;;;;;;;;;;4922232;28;20035;-80
2022/01/06 08:15:08;;;;;;;4.00;2.42;;;;;;;;;;4945007;28;20105;-81
2022/01/06 08:17:34;;;;;;;4.90;2.97;;;;;;;;;;4929941;28;20042;-80
2022/01/06 08:20:00;;;;;;;4.05;2.33;;;;;;;;;;4929152;28;20443;-80
2022/01/06 08:22:26;;;;;;;10.70;2.95;;;;;;;;;;4928513;28;20067;-83
2022/01/06 08:24:52;;;;;;;4.45;2.38;;;;;;;;;;4910225;28;20162;-79
2022/01/06 08:27:19;;;;;;;3.47;1.65;;;;;;;;;;4922971;28;20058;-81
2022/01/06 08:29:45;;;;;;;5.22;3.20;;;;;;;;;;4927868;28;20036;-81
2022/01/06 08:32:11;;;;;;;18.30;3.55;;;;;;;;;;4923179;28;20089;-81
2022/01/06 08:34:37;;;;;;;4.90;2.35;;;;;;;;;;4930434;28;20028;-81
2022/01/06 08:37:03;;;;;;;3.97;2.50;;;;;;;;;;4932485;28;20052;-81
2022/01/06 08:39:29;;;;;;;4.82;1.95;;;;;;;;;;4932324;28;20031;-81
2022/01/06 08:41:55;;;;;;;4.97;1.90;;;;;;;;;;4919287;28;20082;-80
2022/01/06 08:44:22;;;;;;;12.20;2.78;;;;;;;;;;4926813;28;20036;-80
2022/01/06 08:46:48;;;;;;;8.27;2.30;;;;;;;;;;4931827;28;20042;-81
2022/01/06 08:49:14;;;;;;;3.53;1.65;;;;;;;;;;4956541;28;20024;-80
2022/01/06 08:51:40;;;;;;;7.03;2.15;;;;;;;;;;4928190;28;20066;-79
2022/01/06 08:54:07;;;;;;;14.88;3.25;;;;;;;;;;4930566;28;20102;-80
2022/01/06 08:56:34;;;;;;;15.35;2.80;;;;;;;;;;4937893;28;20046;-80
2022/01/06 08:59:00;;;;;;;4.82;2.25;;;;;;;;;;4931342;28;20098;-79
2022/01/06 09:01:26;;;;;;;4.95;2.38;;;;;;;;;;4950378;28;20640;-80
2022/01/06 09:03:52;;;;;;;8.05;2.50;;;;;;;;;;4927939;28;20028;-80
2022/01/06 09:06:19;;;;;;;6.88;3.10;;;;;;;;;;4928574;28;20035;-79
2022/01/06 09:08:45;;;;;;;4.65;1.65;;;;;;;;;;4930249;28;20032;-80
2022/01/06 09:11:12;;;;;;;10.25;2.30;;;;;;;;;;4946723;28;20489;-80
2022/01/06 09:13:38;;;;;;;2.65;1.52;;;;;;;;;;4929831;28;20097;-80
2022/01/06 09:16:08;;;;;;;4.95;1.88;;;;;;;;;;4925926;28;20020;-80
2022/01/06 09:18:34;;;;;;;7.40;2.58;;;;;;;;;;4944202;28;20031;-80
2022/01/06 09:20:59;;;;;;;13.70;2.55;;;;;;;;;;4935029;28;20400;-80
2022/01/06 09:23:26;;;;;;;4.68;2.42;;;;;;;;;;4928613;28;20103;-81
2022/01/06 09:25:52;;;;;;;5.88;2.72;;;;;;;;;;4945915;28;20078;-78
2022/01/06 09:28:18;;;;;;;3.22;1.80;;;;;;;;;;4924759;28;20028;-80
2022/01/06 09:30:46;;;;;;;9.82;1.60;;;;;;;;;;4931212;28;20109;-79
2022/01/06 09:33:13;;;;;;;8.93;2.15;;;;;;;;;;4936572;28;20039;-79
2022/01/06 09:35:39;;;;;;;1.85;1.17;;;;;;;;;;4930643;28;20587;-80
2022/01/06 09:38:05;;;;;;;12.43;2.25;;;;;;;;;;4949421;28;20442;-80
2022/01/06 09:40:31;;;;;;;8.90;2.85;;;;;;;;;;4936326;28;20032;-81
2022/01/06 09:42:57;;;;;;;8.40;2.22;;;;;;;;;;4949797;28;20039;-80
2022/01/06 09:45:27;;;;;;;6.60;2.53;;;;;;;;;;4930051;28;20031;-80
2022/01/06 09:47:53;;;;;;;3.92;1.92;;;;;;;;;;4931909;28;20036;-81
2022/01/06 09:50:19;;;;;;;10.30;3.53;;;;;;;;;;4935075;28;20040;-81
2022/01/06 09:52:46;;;;;;;3.55;1.52;;;;;;;;;;4927924;28;20047;-81
2022/01/06 09:55:12;;;;;;;6.35;1.45;;;;;;;;;;4940487;28;20039;-81
2022/01/06 09:57:38;;;;;;;5.72;2.90;;;;;;;;;;4930415;28;20051;-81
2022/01/06 10:00:07;;;;;;;5.78;1.63;;;;;;;;;;4945932;28;20028;-81
2022/01/06 10:02:37;;;;;;;10.27;2.13;;;;;;;;;;4929267;28;20372;-82
2022/01/06 10:05:04;;;;;;;4.43;1.83;;;;;;;;;;4932326;28;20031;-81
2022/01/06 10:07:37;;;;;;;8.85;2.42;;;;;;;;;;4921662;28;20035;-80
2022/01/06 10:10:07;;;;;;;6.80;1.25;;;;;;;;;;4930299;28;20058;-80
2022/01/06 10:12:33;;;;;;;3.28;1.63;;;;;;;;;;4932091;28;20052;-81
2022/01/06 10:15:00;;;;;;;4.38;1.88;;;;;;;;;;4952691;28;20090;-80
2022/01/06 10:17:30;;;;;;;7.25;3.25;;;;;;;;;;4926165;28;20032;-81
2022/01/06 10:19:56;;;;;;;7.70;1.73;;;;;;;;;;4944347;28;20028;-81
2022/01/06 10:22:22;;;;;;;9.13;1.73;;;;;;;;;;4929086;28;20031;-81
2022/01/06 10:24:49;;;;;;;8.07;1.80;;;;;;;;;;4929756;28;20105;-83
2022/01/06 10:27:19;;;;;;;3.08;1.60;;;;;;;;;;4929639;28;20019;-80
2022/01/06 10:29:45;;;;;;;3.88;1.73;;;;;;;;;;4933349;28;20028;-80
2022/01/06 10:32:13;;;;;;;2.88;1.45;;;;;;;;;;4926872;28;20089;-80
2022/01/06 10:34:40;;;;;;;4.32;1.98;;;;;;;;;;4953353;28;20031;-80
2022/01/06 10:37:19;;;;;;;3.85;2.13;;;;;;;;;;4950157;28;20465;-80
2022/01/06 10:39:45;;;;;;;3.90;1.20;;;;;;;;;;4930265;28;20035;-81
2022/01/06 10:42:12;;;;;;;4.47;1.80;;;;;;;;;;4931418;28;20034;-82
2022/01/06 10:44:51;;;;;;;10.40;1.20;;;;;;;;;;4908463;28;20044;-80
2022/01/06 10:47:30;;;;;;;4.35;1.55;;;;;;;;;;4925109;28;20036;-80
2022/01/06 10:50:09;;;;;;;5.97;1.80;;;;;;;;;;4924571;28;20050;-79
2022/01/06 10:52:35;;;;;;;6.20;2.72;;;;;;;;;;4952187;28;20032;-80
2022/01/06 10:55:10;;;;;;;14.10;1.85;;;;;;;;;;4950356;28;20035;-81
2022/01/06 10:57:36;;;;;;;8.27;4.45;;;;;;;;;;4917846;28;21274;-78
2022/01/06 11:00:03;;;;;;;3.85;1.77;;;;;;;;;;4937574;28;20026;-80
2022/01/06 11:02:29;;;;;;;4.28;2.08;;;;;;;;;;4926857;28;20487;-79
2022/01/06 11:04:55;;;;;;;4.10;1.48;;;;;;;;;;4951246;28;20035;-83
2022/01/06 11:07:21;;;;;;;3.67;1.08;;;;;;;;;;4949357;28;20598;-80
2022/01/06 11:09:49;;;;;;;5.35;1.77;;;;;;;;;;4964986;28;20109;-81
2022/01/06 11:12:27;;;;;;;2.95;1.45;;;6.20;99.90;;;;;;4923449;28;20071;-79
2022/01/06 11:14:53;;;;;;;6.72;1.45;;;;;;;;;;4929458;28;20116;-80
2022/01/06 11:17:21;;;;;;;4.72;1.80;;;;;;;;;;4945020;28;20546;-80
2022/01/06 11:19:51;;;;;;;2.95;1.92;;;;;;;;;;4941241;28;20040;-81
2022/01/06 11:22:23;;;;;;;2.95;1.33;;;5.70;99.90;;;;;;4934816;28;20026;-81
2022/01/06 11:24:53;;;;;;;2.77;1.20;;;;;;;;;;4931783;28;20033;-79
2022/01/06 11:27:29;;;;;;;10.90;1.75;;;;;;;;;;4939984;28;20034;-80
2022/01/06 11:29:55;;;;;;;3.05;0.90;;;;;;;;;;4930080;28;20063;-79
2022/01/06 11:32:22;;;;;;;2.70;0.85;;;;;;;;;;4958700;28;20078;-79
2022/01/06 11:34:51;;;;;;;5.43;0.95;;;;;;;;;;4958880;28;20050;-79
2022/01/06 11:37:17;;;;;;;6.28;2.05;;;;;;;;;;4932468;28;20032;-78
2022/01/06 11:39:44;;;;;;;10.27;1.33;;;;;;;;;;4946091;28;20108;-78
2022/01/06 11:42:25;;;;;;;4.65;1.38;;;;;;;;;;4923731;28;20031;-78
2022/01/06 11:44:52;;;;;;;8.93;1.63;;;;;;;;;;4928499;28;20129;-79
2022/01/06 11:47:29;;;;;;;2.47;1.23;;;;;;;;;;4921576;28;20040;-79
2022/01/06 11:50:05;;;;;;;3.15;1.02;;;;;;;;;;4924724;28;20039;-79
2022/01/06 11:52:31;;;;;;;1.85;0.70;;;;;;;;;;4936475;28;20039;-78
2022/01/06 11:54:57;;;;;;;1.25;0.90;;;;;;;;;;4926777;28;20047;-79
2022/01/06 11:57:31;;;;;;;6.90;1.20;;;6.00;99.90;;;;;;4926627;28;20056;-79
2022/01/06 12:00:13;;;;;;;8.18;1.55;;;;;;;;;;4950092;28;20024;-78
2022/01/06 12:02:39;;;;;;;8.75;0.73;;;;;;;;;;4953151;28;20039;-79
2022/01/06 12:05:05;;;;;;;5.68;0.80;;;;;;;;;;4930649;28;20078;-80
2022/01/06 12:07:31;;;;;;;3.47;1.02;;;;;;;;;;4934467;28;20042;-79
2022/01/06 12:10:03;;;;;;;3.75;0.80;;;;;;;;;;4926199;28;20039;-78
2022/01/06 12:12:36;;;;;;;1.17;1.02;;;;;;;;;;4943617;28;20041;-78
2022/01/06 12:15:12;;;;;;;1.00;0.70;;;;;;;;;;4925618;28;20179;-79
2022/01/06 12:17:44;;;;;;;8.40;1.48;;;;;;;;;;4949893;28;20040;-79
2022/01/06 12:20:10;;;;;;;2.88;0.85;;;;;;;;;;4940768;28;20039;-79
2022/01/06 12:22:36;;;;;;;4.88;1.15;;;;;;;;;;4922524;28;20027;-79
2022/01/06 12:25:03;;;;;;;8.25;0.95;;;;;;;;;;4961926;28;20123;-79
2022/01/06 12:27:30;;;;;;;3.10;1.15;;;6.70;99.90;;;;;;4953215;28;20042;-79
2022/01/06 12:29:56;;;;;;;3.42;1.30;;;;;;;;;;4922563;28;20507;-79
2022/01/06 12:32:22;;;;;;;3.28;0.88;;;;;;;;;;4935616;28;20042;-80
2022/01/06 12:34:52;;;;;;;6.13;1.75;;;;;;;;;;4960571;28;20038;-79
2022/01/06 12:37:25;;;;;;;4.55;1.00;;;;;;;;;;4921087;28;20022;-79
2022/01/06 12:39:51;;;;;;;6.75;1.65;;;;;;;;;;4932148;28;20028;-78
2022/01/06 12:42:17;;;;;;;5.00;1.63;;;;;;;;;;4909598;28;20559;-79
2022/01/06 12:44:43;;;;;;;2.05;0.80;;;;;;;;;;4929650;28;20815;-78
2022/01/06 12:47:09;;;;;;;3.92;1.45;;;;;;;;;;4921457;28;20059;-78
2022/01/06 12:49:37;;;;;;;3.88;0.57;;;;;;;;;;4933910;28;20068;-79
2022/01/06 12:52:03;;;;;;;4.25;1.27;;;;;;;;;;4949338;28;20036;-78
2022/01/06 12:54:32;;;;;;;1.80;1.00;;;;;;;;;;4940867;28;20047;-78
2022/01/06 12:57:00;;;;;;;7.25;1.60;;;;;;;;;;4944232;28;20031;-78
2022/01/06 12:59:34;;;;;;;1.58;1.00;;;;;;;;;;4923205;28;20040;-78
2022/01/06 13:02:18;;;;;;;4.45;1.00;;;;;;;;;;4941825;28;20097;-78
2022/01/06 13:04:45;;;;;;;4.85;2.25;;;;;;;;;;4938538;28;20163;-78
2022/01/06 13:07:13;;;;;;;5.45;1.52;;;;;;;;;;4952009;28;20041;-78
2022/01/06 13:09:43;;;;;;;4.65;1.67;;;;;;;;;;4926164;28;20683;-78
2022/01/06 13:12:10;;;;;;;4.90;0.98;;;;;;;;;;4944222;28;20089;-78
2022/01/06 13:14:43;;;;;;;9.43;1.70;;;;;;;;;;4947980;28;20063;-78
2022/01/06 13:17:12;;;;;;;7.22;0.95;;;;;;;;;;4942998;28;20401;-79
2022/01/06 13:19:43;;;;;;;6.63;2.70;;;;;;;;;;4938633;28;20517;-78
2022/01/06 13:22:16;;;;;;;18.75;4.15;;;;;;;;;;4942664;28;20028;-78
2022/01/06 13:24:42;;;;;;;4.13;1.13;;;;;;;;;;4934761;28;20511;-78
2022/01/06 13:27:12;;;;;;;17.35;2.55;;;;;;;;;;4955142;28;20033;-77
2022/01/06 13:29:51;;;;;;;3.70;1.55;;;;;;;;;;4919988;28;20028;-78
2022/01/06 13:32:26;;;;;;;6.78;2.78;;;;;;;;;;4923024;28;20032;-78
2022/01/06 13:35:08;;;;;;;1.85;0.80;;;;;;;;;;4951206;28;20046;-78
2022/01/06 13:37:37;;;;;;;5.87;1.40;;;;;;;;;;4929672;28;20554;-77
2022/01/06 13:40:07;;;;;;;14.65;3.45;;;;;;;;;;4923581;28;20751;-77
2022/01/06 13:42:46;;;;;;;3.78;2.45;;;;;;;;;;4936297;28;20097;-78
2022/01/06 13:45:38;;;;;;;6.40;1.10;;;;;;;;;;4917818;28;20087;-77
2022/01/06 13:48:34;;;;;;;21.23;4.68;;;;;;;;;;4954222;28;20052;-77
2022/01/06 13:51:08;;;;;;;4.07;1.15;;;;;;;;;;4926091;28;20085;-77
2022/01/06 13:53:42;;;;;;;5.15;1.42;;;;;;;;;;4932294;28;20043;-77
2022/01/06 13:56:32;;;;;;;3.72;1.25;;;6.30;99.90;;;;;;4960796;28;20143;-77
2022/01/06 13:59:07;;;;;;;4.55;1.27;;;;;;;;;;4922123;28;20032;-79
2022/01/06 14:01:33;;;;;;;7.15;0.82;;;;;;;;;;4932557;28;20047;-76
2022/01/06 14:03:59;;;;;;;2.60;0.65;;;;;;;;;;4929458;28;20056;-76
2022/01/06 14:06:25;;;;;;;9.48;2.17;;;6.10;99.90;;;;;;4921130;28;20543;-77
2022/01/06 14:08:51;;;;;;;7.15;1.42;;;;;;;;;;4920703;28;20036;-76
2022/01/06 14:11:18;;;;;;;4.72;1.05;;;;;;;;;;4932610;28;20695;-78
2022/01/06 14:13:45;;;;;;;5.25;2.08;;;;;;;;;;4931504;28;20121;-77
2022/01/06 14:16:12;;;;;;;11.73;1.20;;;;;;;;;;4945095;28;20037;-77
2022/01/06 14:18:38;;;;;;;2.70;0.75;;;;;;;;;;4932736;28;20036;-77
2022/01/06 14:21:04;;;;;;;4.13;0.82;;;;;;;;;;4925961;28;20166;-77
2022/01/06 14:23:32;;;;;;;2.47;1.17;;;;;;;;;;4932349;28;20441;-78
2022/01/06 14:25:58;;;;;;;5.30;1.02;;;;;;;;;;4926014;28;20171;-77
2022/01/06 14:28:25;;;;;;;3.72;1.15;;;;;;;;;;4921757;28;20040;-77
2022/01/06 14:30:51;;;;;;;1.58;0.73;;;;;;;;;;4924025;28;20032;-77
2022/01/06 14:33:17;;;;;;;1.83;0.70;;;;;;;;;;4941629;28;20139;-77
2022/01/06 14:35:43;;;;;;;2.53;1.33;;;;;;;;;;4948531;28;20165;-77
2022/01/06 14:38:09;;;;;;;2.50;0.90;;;;;;;;;;4916822;28;20032;-77
2022/01/06 14:40:35;;;;;;;1.88;0.98;;;;;;;;;;4942702;28;20438;-77
2022/01/06 14:43:02;;;;;;;2.63;1.08;;;;;;;;;;4927128;28;20028;-79
2022/01/06 14:45:29;;;;;;;1.35;0.85;;;;;;;;;;4924821;28;20544;-78
2022/01/06 14:47:55;;;;;;;1.98;0.80;;;;;;;;;;4919242;28;20422;-78
2022/01/06 14:50:21;;;;;;;3.63;2.03;;;;;;;;;;4937762;28;20043;-78